sensor_id;sensor_type;location;lat;lon;timestamp;pressure;altitude;pressure_sealevel;temperature;humidity
20656;BME280;10487;53.320;8.672;2023-01-25T00:00:43;103558.03;;;-0.93;61.49
20656;BME280;10487;53.320;8.672;2023-01-25T00:03:44;103559.78;;;-0.93;61.43
20656;BME280;10487;53.320;8.672;2023-01-25T00:06:46;103557.03;;;-0.99;61.12
20656;BME280;10487;53.320;8.672;2023-01-25T00:09:48;103559.53;;;-1.06;61.32
20656;BME280;10487;53.320;8.672;2023-01-25T00:12:50;103563.88;;;-1.08;61.60
20656;BME280;10487;53.320;8.672;2023-01-25T00:15:51;103560.41;;;-1.07;61.58
20656;BME280;10487;53.320;8.672;2023-01-25T00:18:53;103556.97;;;-1.04;61.65
20656;BME280;10487;53.320;8.672;2023-01-25T00:21:55;103554.34;;;-1.02;61.64
20656;BME280;10487;53.320;8.672;2023-01-25T00:24:56;103554.34;;;-1.02;61.56
20656;BME280;10487;53.320;8.672;2023-01-25T00:27:58;103553.44;;;-1.04;61.41
20656;BME280;10487;53.320;8.672;2023-01-25T00:31:01;103548.09;;;-1.11;61.39
20656;BME280;10487;53.320;8.672;2023-01-25T00:40:21;103547.38;;;-1.47;61.23
20656;BME280;10487;53.320;8.672;2023-01-25T00:43:23;103541.97;;;-1.56;61.33
20656;BME280;10487;53.320;8.672;2023-01-25T00:46:26;103538.31;;;-1.62;61.33
20656;BME280;10487;53.320;8.672;2023-01-25T00:49:28;103524.28;;;-1.66;61.73
20656;BME280;10487;53.320;8.672;2023-01-25T00:52:32;103536.56;;;-1.63;61.61
20656;BME280;10487;53.320;8.672;2023-01-25T00:55:34;103528.81;;;-1.59;61.73
20656;BME280;10487;53.320;8.672;2023-01-25T00:58:35;103532.38;;;-1.55;62.13
20656;BME280;10487;53.320;8.672;2023-01-25T01:01:37;103528.94;;;-1.53;61.71
20656;BME280;10487;53.320;8.672;2023-01-25T01:04:40;103530.63;;;-1.55;61.68
20656;BME280;10487;53.320;8.672;2023-01-25T01:07:42;103521.69;;;-1.64;61.48
20656;BME280;10487;53.320;8.672;2023-01-25T01:10:44;103515.47;;;-1.71;61.22
20656;BME280;10487;53.320;8.672;2023-01-25T01:13:45;103516.28;;;-1.74;61.81
20656;BME280;10487;53.320;8.672;2023-01-25T01:16:47;103510.22;;;-1.71;61.49
20656;BME280;10487;53.320;8.672;2023-01-25T01:19:48;103511.16;;;-1.67;61.54
20656;BME280;10487;53.320;8.672;2023-01-25T01:22:51;103503.38;;;-1.64;61.46
20656;BME280;10487;53.320;8.672;2023-01-25T01:25:52;103499.09;;;-1.61;61.78
20656;BME280;10487;53.320;8.672;2023-01-25T01:28:54;103508.75;;;-1.57;61.72
20656;BME280;10487;53.320;8.672;2023-01-25T01:31:56;103505.38;;;-1.53;61.66
20656;BME280;10487;53.320;8.672;2023-01-25T01:34:57;103512.34;;;-1.52;61.50
20656;BME280;10487;53.320;8.672;2023-01-25T01:37:59;103506.28;;;-1.49;61.56
20656;BME280;10487;53.320;8.672;2023-01-25T01:41:01;103511.53;;;-1.49;61.57
20656;BME280;10487;53.320;8.672;2023-01-25T01:44:03;103501.06;;;-1.49;61.49
20656;BME280;10487;53.320;8.672;2023-01-25T01:47:07;103496.72;;;-1.47;61.37
20656;BME280;10487;53.320;8.672;2023-01-25T01:50:21;103496.72;;;-1.47;61.19
20656;BME280;10487;53.320;8.672;2023-01-25T01:53:24;103499.31;;;-1.49;61.18
20656;BME280;10487;53.320;8.672;2023-01-25T01:56:32;103492.34;;;-1.48;61.57
20656;BME280;10487;53.320;8.672;2023-01-25T02:02:44;103480.84;;;-1.55;61.54
20656;BME280;10487;53.320;8.672;2023-01-25T02:05:54;103471.19;;;-1.57;61.22
20656;BME280;10487;53.320;8.672;2023-01-25T02:08:57;103470.28;;;-1.59;61.37
20656;BME280;10487;53.320;8.672;2023-01-25T02:11:59;103460.69;;;-1.60;61.66
20656;BME280;10487;53.320;8.672;2023-01-25T02:15:01;103467.66;;;-1.61;61.57
20656;BME280;10487;53.320;8.672;2023-01-25T02:18:03;103452.84;;;-1.59;61.41
20656;BME280;10487;53.320;8.672;2023-01-25T02:21:04;103457.19;;;-1.59;61.65
20656;BME280;10487;53.320;8.672;2023-01-25T02:24:11;103450.22;;;-1.60;61.36
20656;BME280;10487;53.320;8.672;2023-01-25T02:27:17;103451.94;;;-1.61;61.49
20656;BME280;10487;53.320;8.672;2023-01-25T02:30:19;103450.22;;;-1.60;61.52
20656;BME280;10487;53.320;8.672;2023-01-25T02:33:22;103441.53;;;-1.58;61.47
20656;BME280;10487;53.320;8.672;2023-01-25T02:36:30;103445.91;;;-1.57;61.42
20656;BME280;10487;53.320;8.672;2023-01-25T02:39:33;103422.31;;;-1.58;61.57
20656;BME280;10487;53.320;8.672;2023-01-25T02:42:35;103433.72;;;-1.55;61.36
20656;BME280;10487;53.320;8.672;2023-01-25T02:45:37;103424.13;;;-1.56;61.25
20656;BME280;10487;53.320;8.672;2023-01-25T02:48:38;103425.84;;;-1.56;61.42
20656;BME280;10487;53.320;8.672;2023-01-25T02:51:44;103421.56;;;-1.53;61.36
20656;BME280;10487;53.320;8.672;2023-01-25T02:54:46;103425.94;;;-1.52;61.54
20656;BME280;10487;53.320;8.672;2023-01-25T02:57:48;103424.22;;;-1.50;61.47
20656;BME280;10487;53.320;8.672;2023-01-25T03:00:50;103416.34;;;-1.50;61.29
20656;BME280;10487;53.320;8.672;2023-01-25T03:03:51;103420.75;;;-1.49;61.51
20656;BME280;10487;53.320;8.672;2023-01-25T03:06:53;103413.78;;;-1.48;61.46
20656;BME280;10487;53.320;8.672;2023-01-25T03:09:54;103408.53;;;-1.48;61.40
20656;BME280;10487;53.320;8.672;2023-01-25T03:12:56;103405.03;;;-1.47;61.34
20656;BME280;10487;53.320;8.672;2023-01-25T03:16:10;103409.44;;;-1.46;61.33
20656;BME280;10487;53.320;8.672;2023-01-25T03:19:12;103405.09;;;-1.46;61.14
20656;BME280;10487;53.320;8.672;2023-01-25T03:22:14;103405.03;;;-1.49;61.22
20656;BME280;10487;53.320;8.672;2023-01-25T03:25:15;103412.00;;;-1.51;61.17
20656;BME280;10487;53.320;8.672;2023-01-25T03:28:17;103410.25;;;-1.50;61.25
20656;BME280;10487;53.320;8.672;2023-01-25T03:31:19;103398.88;;;-1.51;61.32
20656;BME280;10487;53.320;8.672;2023-01-25T03:34:20;103409.38;;;-1.51;61.02
20656;BME280;10487;53.320;8.672;2023-01-25T03:37:22;103399.72;;;-1.52;61.29
20656;BME280;10487;53.320;8.672;2023-01-25T03:40:24;103392.69;;;-1.54;61.31
20656;BME280;10487;53.320;8.672;2023-01-25T03:43:26;103385.72;;;-1.55;61.31
20656;BME280;10487;53.320;8.672;2023-01-25T03:46:27;103394.47;;;-1.53;61.22
20656;BME280;10487;53.320;8.672;2023-01-25T03:49:29;103391.88;;;-1.52;61.32
20656;BME280;10487;53.320;8.672;2023-01-25T03:52:43;103395.41;;;-1.50;61.15
20656;BME280;10487;53.320;8.672;2023-01-25T03:55:47;103386.69;;;-1.49;61.51
20656;BME280;10487;53.320;8.672;2023-01-25T03:58:50;103388.47;;;-1.48;61.56
20656;BME280;10487;53.320;8.672;2023-01-25T04:01:52;103388.50;;;-1.46;61.06
20656;BME280;10487;53.320;8.672;2023-01-25T04:04:53;103388.47;;;-1.48;61.26
20656;BME280;10487;53.320;8.672;2023-01-25T04:07:55;103375.34;;;-1.49;61.38
20656;BME280;10487;53.320;8.672;2023-01-25T04:11:02;103378.84;;;-1.49;61.13
20656;BME280;10487;53.320;8.672;2023-01-25T04:14:04;103376.16;;;-1.52;61.33
20656;BME280;10487;53.320;8.672;2023-01-25T04:17:05;103363.94;;;-1.51;61.20
20656;BME280;10487;53.320;8.672;2023-01-25T04:20:09;103366.56;;;-1.51;61.48
20656;BME280;10487;53.320;8.672;2023-01-25T04:23:11;103364.78;;;-1.54;61.31
20656;BME280;10487;53.320;8.672;2023-01-25T04:26:13;103363.00;;;-1.56;61.39
20656;BME280;10487;53.320;8.672;2023-01-25T04:29:15;103362.09;;;-1.57;61.17
20656;BME280;10487;53.320;8.672;2023-01-25T04:32:16;103350.78;;;-1.56;61.30
20656;BME280;10487;53.320;8.672;2023-01-25T04:35:18;103344.66;;;-1.55;61.16
20656;BME280;10487;53.320;8.672;2023-01-25T04:38:23;103340.31;;;-1.56;61.39
20656;BME280;10487;53.320;8.672;2023-01-25T04:41:24;103335.97;;;-1.55;61.11
20656;BME280;10487;53.320;8.672;2023-01-25T04:44:29;103335.97;;;-1.54;61.30
20656;BME280;10487;53.320;8.672;2023-01-25T04:47:31;103330.75;;;-1.54;61.21
20656;BME280;10487;53.320;8.672;2023-01-25T04:50:32;103329.00;;;-1.53;61.26
20656;BME280;10487;53.320;8.672;2023-01-25T04:53:35;103324.66;;;-1.51;61.24
20656;BME280;10487;53.320;8.672;2023-01-25T04:56:36;103329.06;;;-1.50;61.32
20656;BME280;10487;53.320;8.672;2023-01-25T04:59:38;103322.94;;;-1.49;61.10
20656;BME280;10487;53.320;8.672;2023-01-25T05:02:40;103323.00;;;-1.48;61.16
20656;BME280;10487;53.320;8.672;2023-01-25T05:05:46;103329.91;;;-1.50;61.34
20656;BME280;10487;53.320;8.672;2023-01-25T05:08:48;103328.13;;;-1.52;61.19
20656;BME280;10487;53.320;8.672;2023-01-25T05:11:49;103337.69;;;-1.56;61.13
20656;BME280;10487;53.320;8.672;2023-01-25T05:14:51;103326.28;;;-1.59;61.12
20656;BME280;10487;53.320;8.672;2023-01-25T05:17:53;103318.34;;;-1.64;61.27
20656;BME280;10487;53.320;8.672;2023-01-25T05:20:54;103318.22;;;-1.70;61.17
20656;BME280;10487;53.320;8.672;2023-01-25T05:23:56;103310.34;;;-1.72;61.24
20656;BME280;10487;53.320;8.672;2023-01-25T05:26:59;103311.25;;;-1.71;61.47
20656;BME280;10487;53.320;8.672;2023-01-25T05:30:01;103312.97;;;-1.72;61.07
20656;BME280;10487;53.320;8.672;2023-01-25T05:33:02;103315.53;;;-1.75;61.04
20656;BME280;10487;53.320;8.672;2023-01-25T05:36:04;103310.28;;;-1.76;61.50
20656;BME280;10487;53.320;8.672;2023-01-25T05:39:06;103302.47;;;-1.73;61.60
20656;BME280;10487;53.320;8.672;2023-01-25T05:42:16;103304.28;;;-1.69;61.17
20656;BME280;10487;53.320;8.672;2023-01-25T05:45:18;103307.75;;;-1.70;61.26
20656;BME280;10487;53.320;8.672;2023-01-25T05:48:20;103305.13;;;-1.70;61.50
20656;BME280;10487;53.320;8.672;2023-01-25T05:51:22;103305.97;;;-1.73;61.38
20656;BME280;10487;53.320;8.672;2023-01-25T05:54:23;103312.03;;;-1.75;61.27
20656;BME280;10487;53.320;8.672;2023-01-25T05:57:25;103310.25;;;-1.78;61.29
20656;BME280;10487;53.320;8.672;2023-01-25T06:00:29;103311.13;;;-1.77;61.31
20656;BME280;10487;53.320;8.672;2023-01-25T06:03:30;103303.25;;;-1.79;60.90
20656;BME280;10487;53.320;8.672;2023-01-25T06:06:32;103305.84;;;-1.80;60.98
20656;BME280;10487;53.320;8.672;2023-01-25T06:09:34;103298.84;;;-1.81;61.40
20656;BME280;10487;53.320;8.672;2023-01-25T06:12:35;103298.84;;;-1.81;61.37
20656;BME280;10487;53.320;8.672;2023-01-25T06:15:37;103302.34;;;-1.79;61.06
20656;BME280;10487;53.320;8.672;2023-01-25T06:18:39;103297.13;;;-1.79;61.10
20656;BME280;10487;53.320;8.672;2023-01-25T06:21:40;103296.28;;;-1.78;61.31
20656;BME280;10487;53.320;8.672;2023-01-25T06:24:42;103296.28;;;-1.77;61.00
20656;BME280;10487;53.320;8.672;2023-01-25T06:27:43;103294.63;;;-1.73;61.12
20656;BME280;10487;53.320;8.672;2023-01-25T06:30:45;103301.66;;;-1.69;61.08
20656;BME280;10487;53.320;8.672;2023-01-25T06:33:49;103299.06;;;-1.67;61.01
20656;BME280;10487;53.320;8.672;2023-01-25T06:36:51;103308.69;;;-1.66;60.85
20656;BME280;10487;53.320;8.672;2023-01-25T06:39:53;103299.13;;;-1.64;61.12
20656;BME280;10487;53.320;8.672;2023-01-25T06:42:54;103305.19;;;-1.67;60.82
20656;BME280;10487;53.320;8.672;2023-01-25T06:46:00;103303.41;;;-1.69;61.16
20656;BME280;10487;53.320;8.672;2023-01-25T06:49:02;103298.22;;;-1.68;61.05
20656;BME280;10487;53.320;8.672;2023-01-25T06:52:03;103299.09;;;-1.66;60.87
20656;BME280;10487;53.320;8.672;2023-01-25T06:55:06;103293.00;;;-1.65;60.95
20656;BME280;10487;53.320;8.672;2023-01-25T06:58:14;103291.25;;;-1.64;61.04
20656;BME280;10487;53.320;8.672;2023-01-25T07:01:21;103295.63;;;-1.65;60.92
20656;BME280;10487;53.320;8.672;2023-01-25T07:04:23;103285.97;;;-1.69;60.74
20656;BME280;10487;53.320;8.672;2023-01-25T07:07:24;103293.22;;;-1.53;60.69
20656;BME280;10487;53.320;8.672;2023-01-25T07:10:26;103277.53;;;-1.51;60.85
20656;BME280;10487;53.320;8.672;2023-01-25T07:13:29;103274.03;;;-1.52;60.57
20656;BME280;10487;53.320;8.672;2023-01-25T07:16:31;103280.97;;;-1.55;60.64
20656;BME280;10487;53.320;8.672;2023-01-25T07:19:37;103269.53;;;-1.60;60.57
20656;BME280;10487;53.320;8.672;2023-01-25T07:22:38;103262.44;;;-1.66;60.92
20656;BME280;10487;53.320;8.672;2023-01-25T07:25:48;103262.41;;;-1.69;60.95
20656;BME280;10487;53.320;8.672;2023-01-25T07:28:51;103270.19;;;-1.72;60.82
20656;BME280;10487;53.320;8.672;2023-01-25T07:31:53;103265.75;;;-1.78;60.76
20656;BME280;10487;53.320;8.672;2023-01-25T07:34:54;103269.22;;;-1.80;60.99
20656;BME280;10487;53.320;8.672;2023-01-25T07:37:56;103267.41;;;-1.83;60.84
20656;BME280;10487;53.320;8.672;2023-01-25T07:40:57;103265.63;;;-1.85;60.85
20656;BME280;10487;53.320;8.672;2023-01-25T07:43:59;103256.91;;;-1.84;61.15
20656;BME280;10487;53.320;8.672;2023-01-25T07:47:01;103252.53;;;-1.85;61.12
20656;BME280;10487;53.320;8.672;2023-01-25T07:50:02;103248.97;;;-1.87;61.24
20656;BME280;10487;53.320;8.672;2023-01-25T07:53:04;103247.19;;;-1.90;61.19
20656;BME280;10487;53.320;8.672;2023-01-25T07:56:07;103234.09;;;-1.91;60.95
20656;BME280;10487;53.320;8.672;2023-01-25T07:59:09;103243.69;;;-1.92;60.84
20656;BME280;10487;53.320;8.672;2023-01-25T08:02:11;103237.56;;;-1.92;60.93
20656;BME280;10487;53.320;8.672;2023-01-25T08:05:12;103246.28;;;-1.92;61.05
20656;BME280;10487;53.320;8.672;2023-01-25T08:08:14;103241.09;;;-1.90;61.03
20656;BME280;10487;53.320;8.672;2023-01-25T08:11:19;103237.66;;;-1.88;61.40
20656;BME280;10487;53.320;8.672;2023-01-25T08:14:21;103238.66;;;-1.80;61.28
20656;BME280;10487;53.320;8.672;2023-01-25T08:17:22;103236.97;;;-1.78;60.98
20656;BME280;10487;53.320;8.672;2023-01-25T08:20:24;103241.25;;;-1.81;61.26
20656;BME280;10487;53.320;8.672;2023-01-25T08:23:26;103228.16;;;-1.83;61.16
20656;BME280;10487;53.320;8.672;2023-01-25T08:26:27;103232.50;;;-1.83;61.04
20656;BME280;10487;53.320;8.672;2023-01-25T08:29:29;103225.44;;;-1.87;60.86
20656;BME280;10487;53.320;8.672;2023-01-25T08:32:31;103220.13;;;-1.92;60.86
20656;BME280;10487;53.320;8.672;2023-01-25T08:35:32;103216.59;;;-1.94;61.30
20656;BME280;10487;53.320;8.672;2023-01-25T08:38:37;103215.72;;;-1.94;61.31
20656;BME280;10487;53.320;8.672;2023-01-25T08:41:39;103207.84;;;-1.96;61.16
20656;BME280;10487;53.320;8.672;2023-01-25T08:44:42;103213.97;;;-1.95;61.10
20656;BME280;10487;53.320;8.672;2023-01-25T08:47:44;103210.47;;;-1.96;61.09
20656;BME280;10487;53.320;8.672;2023-01-25T08:50:46;103201.66;;;-1.99;61.03
20656;BME280;10487;53.320;8.672;2023-01-25T08:53:47;103211.19;;;-2.04;61.34
20656;BME280;10487;53.320;8.672;2023-01-25T08:56:49;103206.78;;;-2.07;61.40
20656;BME280;10487;53.320;8.672;2023-01-25T08:59:51;103198.91;;;-2.08;60.97
20656;BME280;10487;53.320;8.672;2023-01-25T09:02:52;103197.13;;;-2.09;61.17
20656;BME280;10487;53.320;8.672;2023-01-25T09:05:54;103194.50;;;-2.12;60.87
20656;BME280;10487;53.320;8.672;2023-01-25T09:08:57;103178.75;;;-2.14;61.21
20656;BME280;10487;53.320;8.672;2023-01-25T09:12:00;103177.84;;;-2.17;61.50
20656;BME280;10487;53.320;8.672;2023-01-25T09:15:02;103184.81;;;-2.16;61.27
20656;BME280;10487;53.320;8.672;2023-01-25T09:18:04;103191.75;;;-2.18;61.44
20656;BME280;10487;53.320;8.672;2023-01-25T09:21:16;103182.09;;;-2.22;61.08
20656;BME280;10487;53.320;8.672;2023-01-25T09:24:18;103166.41;;;-2.22;61.34
20656;BME280;10487;53.320;8.672;2023-01-25T09:27:20;103155.06;;;-2.21;61.29
20656;BME280;10487;53.320;8.672;2023-01-25T09:30:21;103155.97;;;-2.21;61.35
20656;BME280;10487;53.320;8.672;2023-01-25T09:33:38;103155.13;;;-2.18;61.07
20656;BME280;10487;53.320;8.672;2023-01-25T09:36:40;103156.06;;;-2.15;61.30
20656;BME280;10487;53.320;8.672;2023-01-25T09:39:42;103152.63;;;-2.12;61.02
20656;BME280;10487;53.320;8.672;2023-01-25T09:46:45;103153.91;;;-1.88;61.83
20656;BME280;10487;53.320;8.672;2023-01-25T09:50:04;103143.50;;;-1.83;61.23
20656;BME280;10487;53.320;8.672;2023-01-25T09:53:38;103135.59;;;-1.85;61.59
20656;BME280;10487;53.320;8.672;2023-01-25T09:56:42;103136.44;;;-1.87;61.13
20656;BME280;10487;53.320;8.672;2023-01-25T09:59:46;103133.75;;;-1.92;61.31
20656;BME280;10487;53.320;8.672;2023-01-25T10:06:09;103134.44;;;-2.03;61.05
20656;BME280;10487;53.320;8.672;2023-01-25T10:09:41;103134.38;;;-2.08;61.66
20656;BME280;10487;53.320;8.672;2023-01-25T10:12:45;103129.09;;;-2.09;61.29
20656;BME280;10487;53.320;8.672;2023-01-25T10:26:31;103107.28;;;-2.11;61.31
20656;BME280;10487;53.320;8.672;2023-01-25T10:29:35;103109.00;;;-2.13;61.29
20656;BME280;10487;53.320;8.672;2023-01-25T10:32:39;103103.75;;;-2.13;61.42
20656;BME280;10487;53.320;8.672;2023-01-25T10:35:57;103101.16;;;-2.13;60.95
20656;BME280;10487;53.320;8.672;2023-01-25T10:39:01;103096.75;;;-2.16;61.63
20656;BME280;10487;53.320;8.672;2023-01-25T10:42:11;103098.47;;;-2.16;61.14
20656;BME280;10487;53.320;8.672;2023-01-25T10:45:14;103082.78;;;-2.18;61.25
20656;BME280;10487;53.320;8.672;2023-01-25T10:48:23;103076.72;;;-2.15;61.56
20656;BME280;10487;53.320;8.672;2023-01-25T10:51:30;103066.25;;;-2.14;61.31
20656;BME280;10487;53.320;8.672;2023-01-25T10:54:32;103055.84;;;-2.12;61.21
20656;BME280;10487;53.320;8.672;2023-01-25T10:57:34;103058.47;;;-2.11;61.34
20656;BME280;10487;53.320;8.672;2023-01-25T11:00:38;103041.88;;;-2.13;61.51
20656;BME280;10487;53.320;8.672;2023-01-25T11:03:41;103041.81;;;-2.16;61.43
20656;BME280;10487;53.320;8.672;2023-01-25T11:06:48;103040.09;;;-2.15;61.39
20656;BME280;10487;53.320;8.672;2023-01-25T11:09:51;103029.63;;;-2.15;61.00
20656;BME280;10487;53.320;8.672;2023-01-25T11:19:30;103029.56;;;-2.18;61.23
20656;BME280;10487;53.320;8.672;2023-01-25T11:22:32;103019.00;;;-2.24;61.12
20656;BME280;10487;53.320;8.672;2023-01-25T11:25:34;103001.88;;;-2.03;61.86
20656;BME280;10487;53.320;8.672;2023-01-25T11:28:35;102996.78;;;-1.94;61.27
20656;BME280;10487;53.320;8.672;2023-01-25T11:31:37;102983.63;;;-1.98;61.37
20656;BME280;10487;53.320;8.672;2023-01-25T11:34:42;102979.19;;;-2.04;61.36
20656;BME280;10487;53.320;8.672;2023-01-25T11:41:22;102978.19;;;-2.13;61.39
20656;BME280;10487;53.320;8.672;2023-01-25T11:45:07;102961.59;;;-2.14;61.41
20656;BME280;10487;53.320;8.672;2023-01-25T12:01:43;102913.50;;;-2.25;61.52
20656;BME280;10487;53.320;8.672;2023-01-25T12:08:26;102904.75;;;-2.27;61.33
20656;BME280;10487;53.320;8.672;2023-01-25T12:21:07;102882.03;;;-2.32;61.64
20656;BME280;10487;53.320;8.672;2023-01-25T12:30:47;102865.41;;;-2.34;61.23
20656;BME280;10487;53.320;8.672;2023-01-25T12:34:01;102857.56;;;-2.34;61.57
20656;BME280;10487;53.320;8.672;2023-01-25T12:37:29;102848.88;;;-2.33;61.42
20656;BME280;10487;53.320;8.672;2023-01-25T12:44:07;102839.25;;;-2.34;61.71
20656;BME280;10487;53.320;8.672;2023-01-25T12:47:18;102830.56;;;-2.35;61.47
20656;BME280;10487;53.320;8.672;2023-01-25T12:50:28;102817.50;;;-2.35;61.49
20656;BME280;10487;53.320;8.672;2023-01-25T12:53:47;102808.72;;;-2.37;61.66
20656;BME280;10487;53.320;8.672;2023-01-25T12:56:59;102809.59;;;-2.37;61.63
20656;BME280;10487;53.320;8.672;2023-01-25T13:12:54;102780.00;;;-2.35;61.31
20656;BME280;10487;53.320;8.672;2023-01-25T13:16:24;102778.22;;;-2.37;61.72
20656;BME280;10487;53.320;8.672;2023-01-25T13:25:45;102773.88;;;-2.36;61.37
20656;BME280;10487;53.320;8.672;2023-01-25T13:28:49;102763.41;;;-2.36;61.72
20656;BME280;10487;53.320;8.672;2023-01-25T13:31:51;102759.06;;;-2.35;61.25
20656;BME280;10487;53.320;8.672;2023-01-25T13:34:56;102754.69;;;-2.38;61.61
20656;BME280;10487;53.320;8.672;2023-01-25T13:41:03;102742.41;;;-2.44;61.36
20656;BME280;10487;53.320;8.672;2023-01-25T13:44:25;102749.38;;;-2.46;61.64
20656;BME280;10487;53.320;8.672;2023-01-25T13:47:31;102746.66;;;-2.52;61.47
20656;BME280;10487;53.320;8.672;2023-01-25T13:50:35;102745.78;;;-2.55;61.57
20656;BME280;10487;53.320;8.672;2023-01-25T13:53:40;102731.78;;;-2.59;61.50
20656;BME280;10487;53.320;8.672;2023-01-25T13:56:44;102727.47;;;-2.55;61.71
20656;BME280;10487;53.320;8.672;2023-01-25T13:59:45;102726.63;;;-2.51;61.86
20656;BME280;10487;53.320;8.672;2023-01-25T14:02:53;102736.19;;;-2.53;61.55
20656;BME280;10487;53.320;8.672;2023-01-25T14:05:56;102732.66;;;-2.57;61.79
20656;BME280;10487;53.320;8.672;2023-01-25T14:09:02;102728.31;;;-2.56;61.21
20656;BME280;10487;53.320;8.672;2023-01-25T14:12:09;102727.44;;;-2.57;61.34
20656;BME280;10487;53.320;8.672;2023-01-25T14:18:19;102704.78;;;-2.58;61.51
20656;BME280;10487;53.320;8.672;2023-01-25T14:21:22;102705.63;;;-2.60;61.64
20656;BME280;10487;53.320;8.672;2023-01-25T14:24:23;102704.75;;;-2.61;61.69
20656;BME280;10487;53.320;8.672;2023-01-25T14:27:25;102699.50;;;-2.61;61.18
20656;BME280;10487;53.320;8.672;2023-01-25T14:30:30;102693.41;;;-2.61;61.52
20656;BME280;10487;53.320;8.672;2023-01-25T14:33:33;102692.50;;;-2.63;61.59
20656;BME280;10487;53.320;8.672;2023-01-25T14:36:45;102697.75;;;-2.65;61.46
20656;BME280;10487;53.320;8.672;2023-01-25T14:39:48;102693.38;;;-2.64;61.98
20656;BME280;10487;53.320;8.672;2023-01-25T14:42:52;102701.28;;;-2.58;61.71
20656;BME280;10487;53.320;8.672;2023-01-25T14:45:54;102708.25;;;-2.59;61.40
20656;BME280;10487;53.320;8.672;2023-01-25T14:52:22;102703.00;;;-2.59;61.38
20656;BME280;10487;53.320;8.672;2023-01-25T14:55:27;102703.91;;;-2.57;61.86
20656;BME280;10487;53.320;8.672;2023-01-25T14:58:29;102695.22;;;-2.56;61.46
20656;BME280;10487;53.320;8.672;2023-01-25T15:01:41;102701.28;;;-2.57;61.05
20656;BME280;10487;53.320;8.672;2023-01-25T15:05:01;102708.25;;;-2.59;61.64
20656;BME280;10487;53.320;8.672;2023-01-25T15:08:29;102699.47;;;-2.64;61.27
20656;BME280;10487;53.320;8.672;2023-01-25T15:11:33;102698.59;;;-2.66;61.08
20656;BME280;10487;53.320;8.672;2023-01-25T15:14:51;102695.94;;;-2.69;61.25
20656;BME280;10487;53.320;8.672;2023-01-25T15:17:54;102690.69;;;-2.70;61.14
20656;BME280;10487;53.320;8.672;2023-01-25T15:20:56;102690.66;;;-2.72;61.55
20656;BME280;10487;53.320;8.672;2023-01-25T15:23:59;102693.31;;;-2.70;61.41
20656;BME280;10487;53.320;8.672;2023-01-25T15:27:08;102690.69;;;-2.70;61.31
20656;BME280;10487;53.320;8.672;2023-01-25T15:30:12;102684.59;;;-2.72;60.94
20656;BME280;10487;53.320;8.672;2023-01-25T15:33:26;102681.09;;;-2.73;61.35
20656;BME280;10487;53.320;8.672;2023-01-25T15:36:29;102667.13;;;-2.75;61.01
20656;BME280;10487;53.320;8.672;2023-01-25T15:39:31;102663.63;;;-2.77;61.47
20656;BME280;10487;53.320;8.672;2023-01-25T15:42:33;102665.34;;;-2.77;61.66
20656;BME280;10487;53.320;8.672;2023-01-25T15:45:34;102659.28;;;-2.75;61.03
20656;BME280;10487;53.320;8.672;2023-01-25T15:48:42;102659.34;;;-2.70;61.46
20656;BME280;10487;53.320;8.672;2023-01-25T15:51:44;102653.31;;;-2.62;61.74
20656;BME280;10487;53.320;8.672;2023-01-25T15:54:46;102649.94;;;-2.53;61.68
20656;BME280;10487;53.320;8.672;2023-01-25T15:58:00;102644.00;;;-2.34;61.75
20656;BME280;10487;53.320;8.672;2023-01-25T16:01:03;102629.22;;;-2.32;61.15
20656;BME280;10487;53.320;8.672;2023-01-25T16:04:05;102633.59;;;-2.29;61.64
20656;BME280;10487;53.320;8.672;2023-01-25T16:07:16;102630.13;;;-2.28;61.40
20656;BME280;10487;53.320;8.672;2023-01-25T16:10:23;102628.34;;;-2.29;61.25
20656;BME280;10487;53.320;8.672;2023-01-25T16:13:25;102623.13;;;-2.29;61.08
20656;BME280;10487;53.320;8.672;2023-01-25T16:16:26;102626.63;;;-2.30;61.27
20656;BME280;10487;53.320;8.672;2023-01-25T16:19:29;102623.13;;;-2.32;61.19
20656;BME280;10487;53.320;8.672;2023-01-25T16:22:30;102633.50;;;-2.37;60.89
20656;BME280;10487;53.320;8.672;2023-01-25T16:25:32;102644.81;;;-2.41;61.18
20656;BME280;10487;53.320;8.672;2023-01-25T16:28:34;102640.44;;;-2.45;60.99
20656;BME280;10487;53.320;8.672;2023-01-25T16:31:35;102646.50;;;-2.48;61.24
20656;BME280;10487;53.320;8.672;2023-01-25T16:34:37;102642.09;;;-2.52;61.46
20656;BME280;10487;53.320;8.672;2023-01-25T16:37:39;102650.78;;;-2.54;61.32
20656;BME280;10487;53.320;8.672;2023-01-25T16:40:40;102653.41;;;-2.54;61.73
20656;BME280;10487;53.320;8.672;2023-01-25T16:43:43;102657.81;;;-2.49;61.76
20656;BME280;10487;53.320;8.672;2023-01-25T16:46:46;102650.91;;;-2.44;61.26
20656;BME280;10487;53.320;8.672;2023-01-25T16:49:50;102650.94;;;-2.42;61.30
20656;BME280;10487;53.320;8.672;2023-01-25T16:52:51;102631.75;;;-2.41;61.47
20656;BME280;10487;53.320;8.672;2023-01-25T16:55:57;102614.31;;;-2.41;61.36
20656;BME280;10487;53.320;8.672;2023-01-25T16:59:00;102609.97;;;-2.37;61.22
20656;BME280;10487;53.320;8.672;2023-01-25T17:02:02;102602.19;;;-2.32;61.11
20656;BME280;10487;53.320;8.672;2023-01-25T17:05:05;102610.06;;;-2.29;61.13
20656;BME280;10487;53.320;8.672;2023-01-25T17:08:07;102588.28;;;-2.28;61.05
20656;BME280;10487;53.320;8.672;2023-01-25T17:11:09;102587.44;;;-2.27;61.46
20656;BME280;10487;53.320;8.672;2023-01-25T17:14:14;102582.22;;;-2.23;61.06
20656;BME280;10487;53.320;8.672;2023-01-25T17:17:16;102577.00;;;-2.21;61.12
20656;BME280;10487;53.320;8.672;2023-01-25T17:20:17;102571.78;;;-2.21;61.27
20656;BME280;10487;53.320;8.672;2023-01-25T17:23:19;102563.03;;;-2.22;61.21
20656;BME280;10487;53.320;8.672;2023-01-25T17:26:22;102560.41;;;-2.23;60.94
20656;BME280;10487;53.320;8.672;2023-01-25T17:29:24;102547.34;;;-2.23;60.82
20656;BME280;10487;53.320;8.672;2023-01-25T17:32:25;102546.50;;;-2.22;61.03
20656;BME280;10487;53.320;8.672;2023-01-25T17:35:28;102543.03;;;-2.18;61.43
20656;BME280;10487;53.320;8.672;2023-01-25T17:38:30;102530.84;;;-2.13;61.25
20656;BME280;10487;53.320;8.672;2023-01-25T17:41:32;102526.53;;;-2.10;61.09
20656;BME280;10487;53.320;8.672;2023-01-25T17:44:33;102528.25;;;-2.07;60.98